KCVO

Corvallis Municipal Airport

Corvallis, Oregon, USA

KCVO 110856Z AUTO 00000KT 8SM CLR M05/M06 A3037 RMK AO2 SLP288 T10501056 51007 FZRANO

Observed Flight Rules
Dec-11 @ 08:56 UTC (20 minutes ago) Visual Flight Rules
Wind Visibility Clouds
Calm 8 miles
  • Clear skies
Temperatures Readings
Current -5°C / 23°F
Dewpoint -6°C / 21°F
Humidity 93%
Altimeter 30.37" Hg
Pressure 1028.8 hPa
Elevation 75
Observed Flight Rules
Dec-11 @ 08:56 UTC
(20 minutes ago)
VFR
Wind Visibility
Calm 8 miles
Clouds
  • Clear skies
Temperature Dewpoint
-5°C / 23°F -6°C / 21°F
Humidity Altimeter Pressure
93% 30.37" Hg 1028.8 hPa